Bee Bayou, Louisiana
Current Conditions -  °F | °C
As of 11:53 PM on Wednesday 17 Dec 2014 (Local Time) from KMLU Reporting Station
Overcast Overcast  
Wind Chill: 42°   Ceiling: 6500
Heat Index: 46°   Visibility: 10mi
Dew Point: 40°   Wind: 8mph
Humidity: 79%   Direction: 60°ENE
Pressure: 30.22"   Gusts: NA
Location:  32.4475°N, 91.7992°W
Report Text: KMLU 180553Z AUTO 06007KT 10SM BKN065 OVC080 08/04 A3022 RMK AO2 SLP231 T00780044 10094 20067 401110000 58001
Loading
Personal Weather Stations






























Interactive Weather Map New forecast layout! Learn more

10-Day Weather Forecast

Advertisements
Track Severe Weather on mobile